createdAt,value
2018-08-27T00:00:46.555Z,39.98
2018-08-27T00:01:56.797Z,39.79
2018-08-27T00:03:07.066Z,39.7
2018-08-27T00:04:17.226Z,39.79
2018-08-27T00:05:27.398Z,39.87
2018-08-27T00:06:37.586Z,39.98
2018-08-27T00:07:47.894Z,40.08
2018-08-27T00:08:57.422Z,39.87
2018-08-27T00:10:07.450Z,39.58
2018-08-27T00:11:17.312Z,40.25
2018-08-27T00:12:27.180Z,40.35
2018-08-27T00:13:37.412Z,40.16
2018-08-27T00:14:47.580Z,40.16
2018-08-27T00:15:57.700Z,40.25
2018-08-27T00:17:07.873Z,40.35
2018-08-27T00:18:18.050Z,40.35
2018-08-27T00:19:28.230Z,40.35
2018-08-27T00:20:38.348Z,40.25
2018-08-27T00:21:48.559Z,40.35
2018-08-27T00:22:58.711Z,40.92
2018-08-27T00:24:09.063Z,40.64
2018-08-27T00:25:19.337Z,40.54
2018-08-27T00:26:29.550Z,40.44
2018-08-27T00:27:39.677Z,40.83
2018-08-27T00:28:49.929Z,40.83
2018-08-27T00:30:00.095Z,40.83
2018-08-27T00:31:10.280Z,40.73
2018-08-27T00:32:20.567Z,40.73
2018-08-27T00:33:30.822Z,40.92
2018-08-27T00:34:40.694Z,41.11
2018-08-27T00:35:50.850Z,41.11
2018-08-27T00:37:00.967Z,41.02
2018-08-27T00:38:11.079Z,41.02
2018-08-27T00:39:21.267Z,41.11
2018-08-27T00:40:31.504Z,40.64
2018-08-27T00:41:41.633Z,40.83
2018-08-27T00:42:51.497Z,40.64
2018-08-27T00:44:01.657Z,40.83
2018-08-27T00:45:11.836Z,40.73
2018-08-27T00:46:21.960Z,40.73
2018-08-27T00:47:32.106Z,40.73
2018-08-27T00:48:42.244Z,40.73
2018-08-27T00:49:52.483Z,40.54
2018-08-27T00:51:02.347Z,40.83
2018-08-27T00:52:12.465Z,40.92
2018-08-27T00:53:22.368Z,40.92
2018-08-27T00:54:32.513Z,41.02
2018-08-27T00:55:42.664Z,40.92
2018-08-27T00:56:52.820Z,40.73
2018-08-27T00:58:03.038Z,41.11
2018-08-27T00:59:13.156Z,41.11
2018-08-27T01:00:23.350Z,41.21
2018-08-27T01:01:33.494Z,41.21
2018-08-27T01:02:43.479Z,41.31
2018-08-27T01:03:53.298Z,41.31
2018-08-27T01:05:03.436Z,41.31
2018-08-27T01:06:13.360Z,41.4
2018-08-27T01:07:23.488Z,41.5
2018-08-27T01:08:33.640Z,41.31
2018-08-27T01:09:43.577Z,41.21
2018-08-27T01:10:53.710Z,41.6
2018-08-27T01:12:03.851Z,41.6
2018-08-27T01:13:13.992Z,41.6
2018-08-27T01:14:24.134Z,41.5
2018-08-27T01:15:34.406Z,41.38
2018-08-27T01:16:44.603Z,41.77
2018-08-27T01:17:54.832Z,41.67
2018-08-27T01:19:04.974Z,41.86
2018-08-27T01:20:15.126Z,41.96
2018-08-27T01:21:25.249Z,42.24
2018-08-27T01:22:35.514Z,41.96
2018-08-27T01:23:45.651Z,41.86
2018-08-27T01:24:55.531Z,41.96
2018-08-27T01:26:05.660Z,41.86
2018-08-27T01:27:15.432Z,42.14
2018-08-27T01:28:25.549Z,42.14
2018-08-27T01:29:35.418Z,42.05
2018-08-27T01:30:45.534Z,42.24
2018-08-27T01:31:55.668Z,42.63
2018-08-27T01:33:05.798Z,42.53
2018-08-27T01:34:15.826Z,42.14
2018-08-27T01:35:25.936Z,42.24
2018-08-27T01:36:36.065Z,42.14
2018-08-27T01:37:46.217Z,42.24
2018-08-27T01:38:56.372Z,42.34
2018-08-27T01:40:06.579Z,42.82
2018-08-27T01:41:16.888Z,43.01
2018-08-27T01:42:27.132Z,42.82
2018-08-27T01:43:36.999Z,42.72
2018-08-27T01:44:47.140Z,42.44
2018-08-27T01:45:57.264Z,42.63
2018-08-27T01:47:07.380Z,42.72
2018-08-27T01:48:17.146Z,42.53
2018-08-27T01:49:27.221Z,42.72
2018-08-27T01:50:37.349Z,42.63
2018-08-27T01:51:47.627Z,42.72
2018-08-27T01:52:57.756Z,42.53
2018-08-27T01:54:07.877Z,42.34
2018-08-27T01:55:18.038Z,42.44
2018-08-27T01:56:28.278Z,42.63
2018-08-27T01:57:38.500Z,42.63
2018-08-27T01:58:48.820Z,42.63
2018-08-27T01:59:59.013Z,42.72
2018-08-27T02:01:10.171Z,42.72
2018-08-27T02:02:20.392Z,42.63
2018-08-27T02:03:30.629Z,42.63
2018-08-27T02:04:40.415Z,43.1
2018-08-27T02:05:50.486Z,42.82
2018-08-27T02:07:00.716Z,42.82
2018-08-27T02:08:10.904Z,43.01
2018-08-27T02:09:20.445Z,43.1
2018-08-27T02:10:30.610Z,43.2
2018-08-27T02:11:40.492Z,43.39
2018-08-27T02:12:50.617Z,43.77
2018-08-27T02:14:00.767Z,43.47
2018-08-27T02:15:10.876Z,43.2
2018-08-27T02:16:20.764Z,43.49
2018-08-27T02:17:30.879Z,43.47
2018-08-27T02:18:41.110Z,44.04
2018-08-27T02:19:51.299Z,44.13
2018-08-27T02:21:01.573Z,43.95
2018-08-27T02:22:12.043Z,44.04
2018-08-27T02:23:22.021Z,44.33
2018-08-27T02:24:32.169Z,44.13
2018-08-27T02:25:42.350Z,44.23
2018-08-27T02:26:52.172Z,44.13
2018-08-27T02:28:02.031Z,44.33
2018-08-27T02:29:11.811Z,44.13
2018-08-27T02:30:21.946Z,44.43
2018-08-27T02:31:32.103Z,44.43
2018-08-27T02:32:42.243Z,44.13
2018-08-27T02:33:52.460Z,44.43
2018-08-27T02:35:02.816Z,44.52
2018-08-27T02:36:13.250Z,44.71
2018-08-27T02:37:22.862Z,44.52
2018-08-27T02:38:32.852Z,44.52
2018-08-27T02:39:42.775Z,44.81
2018-08-27T02:40:53.090Z,44.71
2018-08-27T02:42:03.203Z,44.71
2018-08-27T02:43:13.334Z,45.09
2018-08-27T02:44:23.202Z,45
2018-08-27T02:45:33.389Z,45
2018-08-27T02:46:43.547Z,45
2018-08-27T02:47:53.947Z,44.9
2018-08-27T02:49:03.856Z,45.19
2018-08-27T02:50:13.724Z,45.29
2018-08-27T02:51:23.598Z,45.19
2018-08-27T02:52:33.755Z,45.29
2018-08-27T02:53:43.887Z,45.09
2018-08-27T02:54:54.103Z,45
2018-08-27T02:56:04.024Z,45
2018-08-27T02:57:13.904Z,45.29
2018-08-27T02:58:23.526Z,45.17
2018-08-27T02:59:33.978Z,45
2018-08-27T03:00:44.133Z,45.07
2018-08-27T03:01:54.308Z,45.26
2018-08-27T03:03:04.483Z,45.36
2018-08-27T03:04:14.668Z,45.26
2018-08-27T03:05:24.934Z,45.19
2018-08-27T03:06:34.898Z,45.45
2018-08-27T03:07:45.039Z,45.19
2018-08-27T03:08:55.307Z,45.09
2018-08-27T03:10:05.432Z,45.19
2018-08-27T03:11:15.592Z,45.57
2018-08-27T03:12:25.486Z,45.74
2018-08-27T03:13:35.684Z,45.67
2018-08-27T03:14:45.575Z,45.67
2018-08-27T03:15:55.448Z,45.76
2018-08-27T03:17:05.570Z,45.67
2018-08-27T03:18:15.981Z,46.05
2018-08-27T03:19:26.398Z,45.67
2018-08-27T03:20:36.529Z,45.48
2018-08-27T03:21:47.630Z,45.67
2018-08-27T03:22:58.891Z,45.76
2018-08-27T03:24:09.267Z,45.76
2018-08-27T03:25:19.423Z,45.67
2018-08-27T03:26:29.079Z,45.57
2018-08-27T03:27:39.629Z,45.86
2018-08-27T03:28:49.754Z,46.05
2018-08-27T03:29:59.418Z,46.05
2018-08-27T03:31:09.554Z,45.48
2018-08-27T03:32:19.437Z,45.67
2018-08-27T03:33:29.597Z,45.57
2018-08-27T03:34:40.020Z,45.96
2018-08-27T03:35:50.177Z,46.05
2018-08-27T03:37:00.111Z,45.86
2018-08-27T03:38:10.246Z,45.96
2018-08-27T03:39:20.729Z,45.96
2018-08-27T03:40:30.925Z,45.86
2018-08-27T03:41:40.939Z,45.76
2018-08-27T03:42:51.126Z,45.67
2018-08-27T03:44:01.356Z,46.15
2018-08-27T03:45:11.485Z,46.15
2018-08-27T03:46:21.629Z,46.05
2018-08-27T03:47:31.736Z,46.05
2018-08-27T03:48:42.135Z,45.67
2018-08-27T03:49:52.314Z,45.67
2018-08-27T03:51:02.477Z,45.96
2018-08-27T03:52:12.614Z,45.76
2018-08-27T03:53:22.769Z,46.05
2018-08-27T03:54:33.001Z,46.15
2018-08-27T03:55:43.158Z,46.15
2018-08-27T03:56:53.342Z,46.05
2018-08-27T03:58:03.492Z,46.34
2018-08-27T03:59:13.632Z,46.44
2018-08-27T04:00:23.662Z,46.44
2018-08-27T04:01:33.888Z,46.34
2018-08-27T04:02:43.767Z,46.34
2018-08-27T04:03:53.897Z,46.72
2018-08-27T04:05:04.047Z,46.53
2018-08-27T04:06:13.963Z,46.15
2018-08-27T04:07:24.095Z,46.15
2018-08-27T04:08:34.228Z,46.53
2018-08-27T04:09:44.406Z,46.53
2018-08-27T04:10:54.132Z,46.44
2018-08-27T04:12:04.108Z,46.53
2018-08-27T04:13:14.227Z,46.44
2018-08-27T04:14:24.374Z,46.53
2018-08-27T04:15:34.534Z,46.25
2018-08-27T04:16:44.681Z,46.44
2018-08-27T04:17:55.038Z,46.62
2018-08-27T04:19:05.221Z,46.44
2018-08-27T04:20:15.466Z,46.44
2018-08-27T04:21:25.648Z,46.72
2018-08-27T04:22:35.921Z,46.62
2018-08-27T04:23:46.088Z,46.53
2018-08-27T04:24:55.958Z,46.82
2018-08-27T04:26:06.321Z,46.82
2018-08-27T04:27:16.458Z,47.01
2018-08-27T04:28:26.606Z,47.01
2018-08-27T04:29:36.803Z,47.01
2018-08-27T04:30:46.981Z,46.82
2018-08-27T04:31:57.170Z,47.11
2018-08-27T04:33:07.304Z,46.91
2018-08-27T04:34:17.467Z,46.82
2018-08-27T04:35:27.592Z,47.01
2018-08-27T04:36:37.742Z,46.91
2018-08-27T04:37:47.905Z,46.91
2018-08-27T04:38:57.785Z,46.72
2018-08-27T04:40:07.674Z,46.91
2018-08-27T04:41:17.800Z,46.82
2018-08-27T04:42:27.975Z,47.2
2018-08-27T04:43:38.460Z,46.91
2018-08-27T04:44:48.392Z,46.91
2018-08-27T04:45:58.147Z,47.01
2018-08-27T04:47:08.475Z,46.82
2018-08-27T04:48:18.799Z,46.62
2018-08-27T04:49:28.937Z,47.01
2018-08-27T04:50:39.061Z,47.01
2018-08-27T04:51:49.033Z,47.11
2018-08-27T04:52:59.186Z,47.01
2018-08-27T04:54:09.085Z,47.01
2018-08-27T04:55:19.229Z,47.01
2018-08-27T04:56:29.401Z,47.3
2018-08-27T04:57:39.750Z,47.2
2018-08-27T04:58:49.931Z,47.01
2018-08-27T05:00:00.059Z,47.11
2018-08-27T05:01:10.291Z,47.3
2018-08-27T05:02:20.458Z,47.01
2018-08-27T05:03:30.603Z,47.3
2018-08-27T05:04:40.862Z,46.91
2018-08-27T05:05:51.124Z,46.91
2018-08-27T05:07:01.289Z,47.11
2018-08-27T05:08:11.508Z,46.82
2018-08-27T05:09:21.877Z,46.91
2018-08-27T05:10:32.052Z,47.01
2018-08-27T05:11:42.399Z,46.91
2018-08-27T05:12:52.262Z,46.91
2018-08-27T05:14:02.014Z,46.82
2018-08-27T05:15:12.178Z,46.82
2018-08-27T05:16:22.304Z,47.01
2018-08-27T05:17:32.556Z,46.91
2018-08-27T05:18:42.676Z,46.94
2018-08-27T05:19:52.563Z,47.13
2018-08-27T05:21:02.449Z,47.03
2018-08-27T05:22:12.631Z,46.94
2018-08-27T05:23:22.745Z,47.03
2018-08-27T05:24:32.915Z,47.03
2018-08-27T05:25:43.066Z,46.75
2018-08-27T05:26:52.915Z,46.65
2018-08-27T05:28:03.262Z,46.65
2018-08-27T05:29:13.408Z,46.65
2018-08-27T05:30:23.534Z,46.75
2018-08-27T05:31:33.798Z,46.26
2018-08-27T05:32:44.324Z,46.46
2018-08-27T05:33:55.572Z,46.84
2018-08-27T05:35:05.754Z,46.26
2018-08-27T05:36:15.971Z,46.46
2018-08-27T05:37:26.178Z,46.46
2018-08-27T05:38:36.638Z,46.55
2018-08-27T05:39:47.233Z,46.55
2018-08-27T05:40:57.381Z,46.46
2018-08-27T05:42:07.520Z,46.17
2018-08-27T05:43:17.687Z,46.17
2018-08-27T05:44:28.891Z,45.79
2018-08-27T05:45:39.127Z,45.9
2018-08-27T05:46:49.358Z,45.89
2018-08-27T05:47:59.790Z,46.29
2018-08-27T05:49:09.672Z,46.26
2018-08-27T05:50:19.851Z,45.9
2018-08-27T05:51:29.967Z,46.1
2018-08-27T05:52:40.113Z,46.19
2018-08-27T05:53:50.252Z,46
2018-08-27T05:55:00.498Z,46.1
2018-08-27T05:56:10.644Z,45.72
2018-08-27T05:57:20.921Z,45.62
2018-08-27T05:58:31.177Z,45.33
2018-08-27T05:59:41.562Z,45.52
2018-08-27T06:00:51.705Z,45.36
2018-08-27T06:02:02.051Z,45.16
2018-08-27T06:03:12.539Z,45.36
2018-08-27T06:04:22.694Z,45.45
2018-08-27T06:05:32.856Z,45.16
2018-08-27T06:06:42.663Z,45.26
2018-08-27T06:07:52.885Z,45.26
2018-08-27T06:09:03.153Z,45.07
2018-08-27T06:10:13.446Z,44.97
2018-08-27T06:11:23.310Z,45.07
2018-08-27T06:12:33.460Z,45.07
2018-08-27T06:13:43.582Z,45.07
2018-08-27T06:14:53.259Z,44.97
2018-08-27T06:16:03.402Z,44.87
2018-08-27T06:17:14.108Z,44.97
2018-08-27T06:18:24.221Z,44.97
2018-08-27T06:19:34.548Z,45.07
2018-08-27T06:20:44.829Z,45.36
2018-08-27T06:21:55.170Z,44.78
2018-08-27T06:23:05.809Z,44.68
2018-08-27T06:24:16.107Z,44.51
2018-08-27T06:25:26.318Z,44.61
2018-08-27T06:26:36.517Z,44.32
2018-08-27T06:27:46.658Z,44.42
2018-08-27T06:28:56.851Z,44.03
2018-08-27T06:30:07.029Z,44.03
2018-08-27T06:31:17.266Z,43.94
2018-08-27T06:32:27.644Z,43.94
2018-08-27T06:33:38.224Z,43.84
2018-08-27T06:34:48.118Z,43.84
2018-08-27T06:35:58.295Z,43.74
2018-08-27T06:37:08.530Z,43.46
2018-08-27T06:38:18.692Z,43.65
2018-08-27T06:39:28.860Z,43.46
2018-08-27T06:40:38.894Z,43.65
2018-08-27T06:41:49.454Z,43.74
2018-08-27T06:42:59.590Z,43.74
2018-08-27T06:44:09.518Z,43.46
2018-08-27T06:45:19.667Z,43.55
2018-08-27T06:46:29.544Z,43.55
2018-08-27T06:47:39.739Z,43.65
2018-08-27T06:48:49.755Z,43.65
2018-08-27T06:49:59.969Z,43.55
2018-08-27T06:51:10.198Z,43.74
2018-08-27T06:52:20.395Z,43.65
2018-08-27T06:53:30.551Z,43.74
2018-08-27T06:54:40.925Z,43.74
2018-08-27T06:55:51.041Z,43.36
2018-08-27T06:57:01.301Z,43.65
2018-08-27T06:58:11.448Z,43.65
2018-08-27T06:59:21.735Z,43.84
2018-08-27T07:00:31.992Z,43.46
2018-08-27T07:01:42.216Z,43.36
2018-08-27T07:02:52.660Z,43.29
2018-08-27T07:04:02.661Z,43.1
2018-08-27T07:05:12.843Z,43.1
2018-08-27T07:06:23.031Z,42.9
2018-08-27T07:07:32.879Z,42.71
2018-08-27T07:08:43.288Z,43
2018-08-27T07:09:53.964Z,42.9
2018-08-27T07:11:04.144Z,43.1
2018-08-27T07:12:14.275Z,43
2018-08-27T07:13:24.430Z,43
2018-08-27T07:14:34.591Z,43.1
2018-08-27T07:15:44.903Z,43
2018-08-27T07:16:55.101Z,43.1
2018-08-27T07:18:05.261Z,43.29
2018-08-27T07:19:15.501Z,43.87
2018-08-27T07:20:25.062Z,43.48
2018-08-27T07:21:35.224Z,44.34
2018-08-27T07:22:45.614Z,43.96
2018-08-27T07:23:56.802Z,44.24
2018-08-27T07:25:06.963Z,44.34
2018-08-27T07:26:17.322Z,44.34
2018-08-27T07:27:27.857Z,44.82
2018-08-27T07:28:38.567Z,45.3
2018-08-27T07:29:48.713Z,44.92
2018-08-27T07:30:58.862Z,45.5
2018-08-27T07:32:09.236Z,45.88
2018-08-27T07:33:19.499Z,45.98
2018-08-27T07:34:29.783Z,46.26
2018-08-27T07:35:39.586Z,47.13
2018-08-27T07:36:49.580Z,47.13
2018-08-27T07:37:59.716Z,47.89
2018-08-27T07:39:10.075Z,48.83
2018-08-27T07:40:19.979Z,49.12
2018-08-27T07:41:29.846Z,49.21
2018-08-27T07:42:39.706Z,49.88
2018-08-27T07:43:49.888Z,50.27
2018-08-27T07:45:00.047Z,49.98
2018-08-27T07:46:10.227Z,50.75
2018-08-27T07:47:20.372Z,50.94
2018-08-27T07:48:30.577Z,50.75
2018-08-27T07:49:40.743Z,51.42
2018-08-27T07:50:51.046Z,51.32
2018-08-27T07:52:01.208Z,51.71
2018-08-27T07:53:11.527Z,51.81
2018-08-27T07:54:21.726Z,51.51
2018-08-27T07:55:31.902Z,52.28
2018-08-27T07:56:42.259Z,51.81
2018-08-27T07:57:52.425Z,52.28
2018-08-27T07:59:02.564Z,52.38
2018-08-27T08:00:12.963Z,52.28
2018-08-27T08:01:22.824Z,52.19
2018-08-27T08:02:33.110Z,52.57
2018-08-27T08:03:44.301Z,52.6
2018-08-27T08:04:54.513Z,52.79
2018-08-27T08:06:04.671Z,53.56
2018-08-27T08:07:15.131Z,53.27
2018-08-27T08:08:25.880Z,53.17
2018-08-27T08:09:36.081Z,53.94
2018-08-27T08:10:46.349Z,54.13
2018-08-27T08:11:56.210Z,54.52
2018-08-27T08:13:06.346Z,55
2018-08-27T08:14:16.489Z,55.1
2018-08-27T08:15:26.639Z,56.24
2018-08-27T08:16:36.840Z,56.24
2018-08-27T08:17:46.747Z,56.05
2018-08-27T08:18:56.907Z,56.15
2018-08-27T08:20:07.043Z,56.82
2018-08-27T08:21:16.929Z,56.92
2018-08-27T08:22:27.265Z,57.01
2018-08-27T08:23:37.403Z,57.21
2018-08-27T08:24:47.472Z,57.4
2018-08-27T08:25:57.661Z,57.3
2018-08-27T08:27:07.860Z,57.01
2018-08-27T08:28:17.972Z,57.3
2018-08-27T08:29:28.184Z,57.78
2018-08-27T08:30:38.321Z,58.45
2018-08-27T08:31:48.445Z,58.45
2018-08-27T08:32:58.432Z,59.32
2018-08-27T08:34:08.831Z,59.51
2018-08-27T08:35:18.987Z,59.32
2018-08-27T08:36:29.369Z,59.32
2018-08-27T08:37:39.507Z,59.38
2018-08-27T08:38:49.400Z,59.22
2018-08-27T08:40:00.061Z,59.32
2018-08-27T08:41:10.606Z,59.32
2018-08-27T08:42:20.802Z,59.12
2018-08-27T08:43:30.673Z,59.51
2018-08-27T08:44:40.288Z,60.08
2018-08-27T08:45:50.174Z,59.99
2018-08-27T08:47:00.295Z,60.28
2018-08-27T08:48:10.427Z,60.38
2018-08-27T08:49:20.575Z,60.44
2018-08-27T08:50:30.852Z,60.57
2018-08-27T08:51:40.465Z,60.72
2018-08-27T08:52:50.093Z,61.02
2018-08-27T08:54:00.269Z,61.02
2018-08-27T08:55:10.151Z,61.02
2018-08-27T08:56:20.276Z,61.11
2018-08-27T08:57:30.460Z,60.92
2018-08-27T08:58:40.648Z,61.11
2018-08-27T08:59:50.800Z,61.11
2018-08-27T09:01:00.942Z,61.11
2018-08-27T09:02:11.426Z,60.47
2018-08-27T09:03:21.585Z,60.47
2018-08-27T09:04:31.712Z,60.47
2018-08-27T09:05:41.899Z,60.47
2018-08-27T09:06:52.073Z,60.57
2018-08-27T09:08:02.435Z,60.85
2018-08-27T09:09:12.647Z,60.28
2018-08-27T09:10:22.784Z,60.47
2018-08-27T09:11:32.948Z,60.18
2018-08-27T09:12:43.194Z,60.08
2018-08-27T09:13:53.359Z,60.18
2018-08-27T09:15:03.501Z,60.47
2018-08-27T09:16:14.008Z,60.18
2018-08-27T09:17:24.391Z,59.8
2018-08-27T09:18:34.809Z,59.8
2018-08-27T09:19:44.640Z,59.99
2018-08-27T09:20:55.012Z,59.51
2018-08-27T09:22:05.158Z,59.73
2018-08-27T09:23:15.307Z,59.7
2018-08-27T09:24:25.441Z,59.25
2018-08-27T09:25:35.602Z,59.16
2018-08-27T09:26:45.747Z,59.16
2018-08-27T09:27:56.090Z,59.34
2018-08-27T09:29:05.961Z,59.34
2018-08-27T09:30:16.572Z,59.54
2018-08-27T09:31:26.885Z,59.54
2018-08-27T09:32:37.349Z,59.44
2018-08-27T09:33:47.623Z,59.34
2018-08-27T09:34:57.800Z,59.34
2018-08-27T09:36:08.023Z,59.44
2018-08-27T09:37:17.832Z,58.96
2018-08-27T09:38:27.464Z,59.44
2018-08-27T09:39:37.817Z,58.96
2018-08-27T09:40:47.948Z,58.77
2018-08-27T09:41:57.826Z,58.39
2018-08-27T09:43:08.157Z,58.42
2018-08-27T09:44:18.395Z,58.8
2018-08-27T09:45:28.517Z,59.09
2018-08-27T09:46:38.910Z,58.51
2018-08-27T09:47:49.144Z,58.7
2018-08-27T09:48:59.312Z,59.09
2018-08-27T09:50:09.438Z,58.42
2018-08-27T09:51:19.562Z,58.8
2018-08-27T09:52:29.742Z,58.89
2018-08-27T09:53:40.006Z,58.42
2018-08-27T09:54:49.827Z,59.57
2018-08-27T09:56:00.002Z,59.09
2018-08-27T09:57:10.196Z,59.57
2018-08-27T09:58:20.575Z,59.44
2018-08-27T09:59:30.753Z,59.34
2018-08-27T10:00:41.888Z,59.54
2018-08-27T10:01:52.031Z,59.34
2018-08-27T10:03:02.197Z,59.44
2018-08-27T10:04:12.396Z,58.96
2018-08-27T10:05:22.535Z,59.09
2018-08-27T10:06:32.436Z,58.42
2018-08-27T10:07:42.678Z,58.61
2018-08-27T10:08:52.572Z,58.7
2018-08-27T10:10:03.055Z,58.32
2018-08-27T10:11:13.240Z,58.13
2018-08-27T10:12:23.645Z,57.65
2018-08-27T10:13:33.810Z,57.26
2018-08-27T10:14:43.947Z,57.36
2018-08-27T10:15:54.351Z,57.36
2018-08-27T10:17:04.524Z,57
2018-08-27T10:18:14.757Z,57
2018-08-27T10:19:25.868Z,56.62
2018-08-27T10:20:36.023Z,57
2018-08-27T10:21:46.316Z,56.71
2018-08-27T10:22:56.518Z,56.14
2018-08-27T10:24:06.830Z,56.23
2018-08-27T10:25:16.974Z,56.14
2018-08-27T10:26:26.929Z,56.04
2018-08-27T10:27:37.544Z,55.94
2018-08-27T10:28:47.504Z,55.66
2018-08-27T10:29:58.093Z,55.59
2018-08-27T10:31:08.426Z,55.59
2018-08-27T10:32:18.582Z,55.59
2018-08-27T10:33:28.730Z,55.4
2018-08-27T10:34:38.722Z,55.3
2018-08-27T10:35:48.975Z,55.49
2018-08-27T10:36:59.174Z,55.2
2018-08-27T10:38:09.484Z,55.01
2018-08-27T10:39:19.655Z,55.3
2018-08-27T10:40:29.786Z,55.2
2018-08-27T10:41:39.775Z,55.2
2018-08-27T10:42:49.731Z,55.2
2018-08-27T10:44:00.461Z,55.4
2018-08-27T10:45:10.746Z,55.2
2018-08-27T10:46:20.981Z,55.2
2018-08-27T10:47:31.191Z,55.4
2018-08-27T10:48:41.577Z,55.2
2018-08-27T10:49:51.706Z,55.2
2018-08-27T10:51:01.858Z,55.3
2018-08-27T10:52:12.003Z,55.2
2018-08-27T10:53:21.945Z,55.49
2018-08-27T10:54:32.046Z,55.3
2018-08-27T10:55:42.225Z,55.4
2018-08-27T10:56:52.315Z,55.3
2018-08-27T10:58:02.509Z,55.78
2018-08-27T10:59:12.680Z,55.88
2018-08-27T11:00:23.033Z,55.43
2018-08-27T11:01:32.988Z,55.71
2018-08-27T11:02:43.129Z,55.52
2018-08-27T11:03:53.343Z,55.71
2018-08-27T11:05:03.545Z,55.43
2018-08-27T11:06:14.069Z,55.43
2018-08-27T11:07:24.211Z,55.33
2018-08-27T11:08:34.350Z,55.43
2018-08-27T11:09:44.501Z,55.33
2018-08-27T11:10:54.653Z,55.43
2018-08-27T11:12:04.906Z,55.43
2018-08-27T11:13:15.138Z,55.43
2018-08-27T11:14:25.592Z,55.33
2018-08-27T11:15:35.849Z,55.33
2018-08-27T11:16:46.070Z,55.33
2018-08-27T11:17:56.217Z,55.52
2018-08-27T11:19:06.479Z,55.71
2018-08-27T11:20:16.749Z,55.74
2018-08-27T11:21:27.241Z,55.74
2018-08-27T11:22:37.408Z,55.74
2018-08-27T11:23:47.422Z,55.55
2018-08-27T11:24:57.613Z,56.03
2018-08-27T11:26:07.261Z,55.93
2018-08-27T11:27:17.402Z,55.83
2018-08-27T11:28:27.553Z,55.83
2018-08-27T11:29:37.906Z,55.83
2018-08-27T11:30:48.040Z,56.12
2018-08-27T11:31:58.176Z,56.22
2018-08-27T11:33:09.346Z,56.41
2018-08-27T11:34:19.710Z,56.32
2018-08-27T11:35:29.886Z,56.6
2018-08-27T11:36:40.081Z,56.6
2018-08-27T11:37:50.227Z,56.32
2018-08-27T11:39:00.383Z,56.41
2018-08-27T11:40:10.641Z,56.12
2018-08-27T11:41:20.827Z,56.12
2018-08-27T11:42:30.992Z,56.41
2018-08-27T11:43:41.196Z,56.32
2018-08-27T11:44:51.664Z,56.6
2018-08-27T11:46:02.015Z,56.6
2018-08-27T11:47:12.216Z,56.51
2018-08-27T11:48:22.616Z,56.41
2018-08-27T11:49:32.771Z,56.7
2018-08-27T11:50:43.128Z,56.9
2018-08-27T11:51:53.935Z,56.99
2018-08-27T11:53:04.312Z,56.7
2018-08-27T11:54:14.453Z,57.28
2018-08-27T11:55:24.603Z,57.28
2018-08-27T11:56:34.979Z,57.09
2018-08-27T11:57:45.143Z,56.99
2018-08-27T11:58:55.283Z,57.09
2018-08-27T12:00:05.466Z,57.09
2018-08-27T12:01:15.806Z,57.47
2018-08-27T12:02:25.889Z,57.67
2018-08-27T12:03:36.070Z,57.37
2018-08-27T12:04:46.235Z,58.44
2018-08-27T12:05:56.487Z,58.44
2018-08-27T12:07:06.656Z,58.44
2018-08-27T12:08:16.900Z,58.63
2018-08-27T12:09:27.030Z,58.72
2018-08-27T12:10:37.206Z,58.63
2018-08-27T12:11:46.982Z,58.92
2018-08-27T12:12:57.121Z,58.92
2018-08-27T12:14:07.108Z,58.72
2018-08-27T12:15:16.993Z,58.82
2018-08-27T12:16:27.146Z,58.75
2018-08-27T12:17:36.992Z,58.56
2018-08-27T12:18:46.865Z,58.3
2018-08-27T12:19:56.792Z,57.92
2018-08-27T12:21:07.009Z,57.62
2018-08-27T12:22:16.934Z,57.62
2018-08-27T12:23:27.128Z,57.53
2018-08-27T12:24:37.259Z,57.34
2018-08-27T12:25:47.048Z,57.62
2018-08-27T12:26:57.217Z,57.92
2018-08-27T12:28:07.390Z,57.34
2018-08-27T12:29:17.757Z,57.14
2018-08-27T12:30:27.808Z,57.05
2018-08-27T12:31:37.978Z,57.14
2018-08-27T12:32:48.203Z,56.95
2018-08-27T12:33:58.383Z,56.85
2018-08-27T12:35:08.310Z,56.66
2018-08-27T12:36:18.525Z,56.76
2018-08-27T12:37:28.674Z,56.95
2018-08-27T12:38:38.913Z,56.98
2018-08-27T12:39:49.072Z,57.27
2018-08-27T12:40:59.417Z,56.49
2018-08-27T12:42:10.514Z,56.88
2018-08-27T12:43:20.681Z,56.79
2018-08-27T12:44:30.219Z,56.49
2018-08-27T12:45:40.407Z,56.59
2018-08-27T12:46:50.542Z,56.59
2018-08-27T12:48:00.720Z,56.49
2018-08-27T12:49:10.857Z,56.14
2018-08-27T12:50:21.077Z,55.94
2018-08-27T12:51:31.217Z,55.66
2018-08-27T12:52:41.096Z,55.46
2018-08-27T12:53:51.264Z,55.66
2018-08-27T12:55:01.502Z,55.46
2018-08-27T12:56:11.714Z,55.36
2018-08-27T12:57:23.002Z,55.27
2018-08-27T12:58:33.393Z,55.27
2018-08-27T12:59:43.970Z,55.1
2018-08-27T13:00:54.139Z,55.4
2018-08-27T13:02:04.314Z,55.49
2018-08-27T13:03:14.693Z,55.4
2018-08-27T13:04:24.877Z,55.49
2018-08-27T13:05:35.495Z,55.3
2018-08-27T13:06:45.948Z,55.59
2018-08-27T13:07:56.433Z,55.4
2018-08-27T13:09:06.462Z,55.2
2018-08-27T13:10:16.658Z,55.59
2018-08-27T13:11:27.075Z,55.1
2018-08-27T13:12:37.797Z,54.91
2018-08-27T13:13:47.916Z,54.72
2018-08-27T13:14:58.115Z,54.82
2018-08-27T13:16:08.543Z,54.55
2018-08-27T13:17:18.708Z,54.84
2018-08-27T13:18:28.926Z,54.36
2018-08-27T13:19:39.116Z,54.29
2018-08-27T13:20:49.016Z,54
2018-08-27T13:21:59.185Z,53.71
2018-08-27T13:23:09.391Z,53.61
2018-08-27T13:24:19.542Z,53.61
2018-08-27T13:25:29.712Z,53.16
2018-08-27T13:26:40.242Z,53.25
2018-08-27T13:27:50.276Z,52.87
2018-08-27T13:29:00.461Z,52.77
2018-08-27T13:30:10.709Z,52.48
2018-08-27T13:31:20.712Z,52.29
2018-08-27T13:32:31.614Z,52.77
2018-08-27T13:33:41.781Z,52.94
2018-08-27T13:34:52.057Z,52.65
2018-08-27T13:36:02.294Z,52.75
2018-08-27T13:37:12.472Z,53.23
2018-08-27T13:38:22.637Z,53.13
2018-08-27T13:39:32.803Z,52.94
2018-08-27T13:40:42.862Z,52.94
2018-08-27T13:41:53.505Z,52.84
2018-08-27T13:43:03.954Z,52.84
2018-08-27T13:44:14.205Z,53.03
2018-08-27T13:45:24.431Z,52.75
2018-08-27T13:46:34.813Z,53.03
2018-08-27T13:47:44.991Z,52.84
2018-08-27T13:48:55.344Z,52.94
2018-08-27T13:50:05.913Z,53.13
2018-08-27T13:51:16.014Z,52.84
2018-08-27T13:52:26.195Z,52.81
2018-08-27T13:53:36.476Z,52.84
2018-08-27T13:54:46.896Z,52.84
2018-08-27T13:55:57.989Z,53.11
2018-08-27T13:57:08.149Z,53.13
2018-08-27T13:58:18.314Z,53.11
2018-08-27T13:59:28.586Z,53.2
2018-08-27T14:00:38.783Z,53.49
2018-08-27T14:01:49.257Z,53.39
2018-08-27T14:02:59.433Z,53.78
2018-08-27T14:04:09.575Z,53.39
2018-08-27T14:05:19.928Z,53.78
2018-08-27T14:06:30.555Z,53.69
2018-08-27T14:07:40.515Z,53.69
2018-08-27T14:08:50.864Z,53.49
2018-08-27T14:10:01.062Z,53.97
2018-08-27T14:11:11.222Z,53.78
2018-08-27T14:12:21.669Z,53.59
2018-08-27T14:13:31.959Z,53.78
2018-08-27T14:14:42.192Z,53.59
2018-08-27T14:15:53.257Z,53.69
2018-08-27T14:17:03.491Z,53.59
2018-08-27T14:18:13.637Z,53.49
2018-08-27T14:19:24.139Z,53.39
2018-08-27T14:20:34.813Z,53.69
2018-08-27T14:21:45.893Z,54.07
2018-08-27T14:22:56.055Z,54.24
2018-08-27T14:24:06.282Z,54.14
2018-08-27T14:25:16.462Z,54.72
2018-08-27T14:26:26.354Z,54.43
2018-08-27T14:27:36.771Z,55.01
2018-08-27T14:28:46.963Z,54.91
2018-08-27T14:29:57.553Z,55.49
2018-08-27T14:31:07.802Z,55.88
2018-08-27T14:32:18.044Z,55.98
2018-08-27T14:33:28.355Z,56.72
2018-08-27T14:34:38.579Z,56.72
2018-08-27T14:35:49.032Z,56.52
2018-08-27T14:36:59.004Z,56.52
2018-08-27T14:38:08.830Z,57.2
2018-08-27T14:39:19.248Z,57.2
2018-08-27T14:40:29.732Z,57.01
2018-08-27T14:41:40.289Z,57.29
2018-08-27T14:42:50.764Z,57.2
2018-08-27T14:44:00.950Z,57.49
2018-08-27T14:45:11.346Z,57.37
2018-08-27T14:46:21.523Z,57.94
2018-08-27T14:47:31.695Z,57.65
2018-08-27T14:48:41.934Z,57.75
2018-08-27T14:49:52.290Z,57.65
2018-08-27T14:51:02.508Z,57.65
2018-08-27T14:52:12.817Z,58.42
2018-08-27T14:53:23.018Z,58.52
2018-08-27T14:54:33.380Z,58.52
2018-08-27T14:55:43.274Z,58.81
2018-08-27T14:56:53.446Z,58.42
2018-08-27T14:58:03.580Z,58.42
2018-08-27T14:59:13.468Z,58.62
2018-08-27T15:00:23.643Z,58.45
2018-08-27T15:01:33.829Z,58.14
2018-08-27T15:02:43.959Z,58.52
2018-08-27T15:03:54.168Z,58.55
2018-08-27T15:05:04.605Z,58.23
2018-08-27T15:06:14.777Z,57.85
2018-08-27T15:07:24.614Z,58.33
2018-08-27T15:08:34.432Z,57.94